Time;durP1;ratioP1;P1;durP2;ratioP2;P2;SDS_P1;SDS_P2;PMS_P1;PMS_P2;Temp;Humidity;BMP_temperature;BMP_pressure;BME280_temperature;BME280_humidity;BME280_pressure;Samples;Min_cycle;Max_cycle;Signal;HPM_P1;HPM_P2
2022/08/28 00:01:58;0.00;0.00;0.62;0.00;0.00;0.62;8.33;3.37;;;24.00;34.10;;;;;;2242370;62;20395;-69
2022/08/28 00:04:43;0.00;0.00;0.62;0.00;0.00;0.62;5.43;3.20;;;24.00;34.10;;;;;;2241708;62;20379;-70
2022/08/28 00:07:27;0.00;0.00;0.62;0.00;0.00;0.62;6.93;3.40;;;24.00;34.20;;;;;;2242364;61;20386;-71
2022/08/28 00:10:15;0.00;0.00;0.62;0.00;0.00;0.62;7.50;3.90;;;23.90;34.10;;;;;;2241750;62;20435;-72
2022/08/28 00:13:00;0.00;0.00;0.62;0.00;0.00;0.62;5.90;3.50;;;23.90;34.30;;;;;;2241695;62;20366;-73
2022/08/28 00:15:50;0.00;0.00;0.62;0.00;0.00;0.62;8.30;4.50;;;23.90;34.30;;;;;;2242151;62;20390;-69
2022/08/28 00:18:34;0.00;0.00;0.62;0.00;0.00;0.62;14.20;4.40;;;23.90;34.40;;;;;;2241218;62;20394;-68
2022/08/28 00:21:20;0.00;0.00;0.62;0.00;0.00;0.62;8.33;3.93;;;23.80;34.60;;;;;;2242350;62;20370;-68
2022/08/28 00:24:05;0.00;0.00;0.62;0.00;0.00;0.62;5.53;3.13;;;23.80;34.70;;;;;;2242265;62;20366;-67
2022/08/28 00:29:54;0.00;0.00;0.62;0.00;0.00;0.62;7.13;3.30;;;23.70;34.70;;;;;;2241543;62;20789;-63
2022/08/28 00:32:40;0.00;0.00;0.62;0.00;0.00;0.62;10.37;3.90;;;23.70;34.80;;;;;;2241486;62;20363;-66
2022/08/28 00:35:26;0.00;0.00;0.62;0.00;0.00;0.62;9.90;3.43;;;23.60;35.10;;;;;;2242175;62;20479;-66
2022/08/28 00:38:12;0.00;0.00;0.62;0.00;0.00;0.62;9.80;3.80;;;23.60;35.20;;;;;;2242142;62;20387;-65
2022/08/28 00:41:02;0.00;0.00;0.62;0.00;0.00;0.62;9.93;3.27;;;23.60;35.30;;;;;;2241254;62;20569;-62
2022/08/28 00:43:48;0.00;0.00;0.62;0.00;0.00;0.62;7.00;3.47;;;23.60;35.30;;;;;;2242259;62;20375;-65
2022/08/28 00:46:34;0.00;0.00;0.62;0.00;0.00;0.62;8.40;3.93;;;23.60;35.40;;;;;;2241692;62;20367;-69
2022/08/28 00:49:24;0.00;0.00;0.62;0.00;0.00;0.62;4.90;3.00;;;23.70;35.60;;;;;;2241560;62;20426;-67
2022/08/28 00:52:10;0.00;0.00;0.62;0.00;0.00;0.62;7.07;3.90;;;23.70;35.50;;;;;;2242126;62;20463;-69
2022/08/28 00:55:00;0.00;0.00;0.62;0.00;0.00;0.62;7.00;3.70;;;23.70;35.50;;;;;;2241418;62;21008;-69
2022/08/28 00:57:49;0.00;0.00;0.62;0.00;0.00;0.62;5.17;2.90;;;23.70;35.40;;;;;;2242045;62;20422;-69
2022/08/28 01:00:36;0.00;0.00;0.62;0.00;0.00;0.62;6.03;3.90;;;23.70;35.40;;;;;;2242116;62;20362;-69
2022/08/28 01:03:21;0.00;0.00;0.62;0.00;0.00;0.62;4.80;3.53;;;23.70;35.40;;;;;;2241347;62;20831;-67
2022/08/28 01:06:08;0.00;0.00;0.62;0.00;0.00;0.62;7.90;3.20;;;23.70;35.50;;;;;;2241912;62;20386;-70
2022/08/28 01:08:53;0.00;0.00;0.62;0.00;0.00;0.62;8.70;3.37;;;23.70;35.50;;;;;;2241677;62;20523;-68
2022/08/28 01:11:40;0.00;0.00;0.62;0.00;0.00;0.62;10.10;3.93;;;23.70;35.50;;;;;;2241646;62;20456;-69
2022/08/28 01:14:32;0.00;0.00;0.62;0.00;0.00;0.62;6.33;3.70;;;23.70;35.50;;;;;;2241578;62;20369;-69
2022/08/28 01:17:19;0.00;0.00;0.62;0.00;0.00;0.62;11.10;3.87;;;23.70;35.50;;;;;;2241061;62;20779;-67
2022/08/28 01:20:08;0.00;0.00;0.62;0.00;0.00;0.62;6.03;3.30;;;23.80;35.70;;;;;;2241715;62;20379;-70
2022/08/28 01:23:07;0.00;0.00;0.62;0.00;0.00;0.62;6.23;3.23;;;23.70;35.60;;;;;;2241996;62;20382;-69
2022/08/28 01:25:53;0.00;0.00;0.62;0.00;0.00;0.62;8.10;4.20;;;23.80;35.80;;;;;;2241349;62;20398;-68
2022/08/28 01:28:39;0.00;0.00;0.62;0.00;0.00;0.62;5.63;3.50;;;23.70;35.70;;;;;;2241972;62;20386;-67
2022/08/28 01:31:26;0.00;0.00;0.62;0.00;0.00;0.62;5.63;3.40;;;23.80;35.70;;;;;;2241902;62;20561;-67
2022/08/28 01:34:12;0.00;0.00;0.62;0.00;0.00;0.62;9.40;3.47;;;23.80;35.70;;;;;;2241753;62;20435;-67
2022/08/28 01:36:57;0.00;0.00;0.62;0.00;0.00;0.62;9.17;3.47;;;23.80;35.70;;;;;;2241885;62;20743;-67
2022/08/28 01:39:42;0.00;0.00;0.62;0.00;0.00;0.62;8.30;3.60;;;23.80;35.60;;;;;;2240434;62;20928;-69
2022/08/28 01:43:08;0.00;0.00;0.62;0.00;0.00;0.62;7.40;3.80;;;23.80;35.60;;;;;;2348742;56;20360;-65
2022/08/28 01:45:59;0.00;0.00;0.62;0.00;0.00;0.62;9.13;3.90;;;23.80;35.70;;;;;;2238509;62;20540;-62
2022/08/28 01:48:44;0.00;0.00;0.62;0.00;0.00;0.62;6.20;3.57;;;23.80;35.60;;;;;;2234170;62;20372;-62
2022/08/28 01:51:29;0.00;0.00;0.62;0.00;0.00;0.62;8.80;3.43;;;23.80;35.80;;;;;;2233149;62;20634;-64
2022/08/28 01:54:14;0.00;0.00;0.62;0.00;0.00;0.62;6.27;3.40;;;23.80;35.70;;;;;;2234135;62;20393;-65
2022/08/28 01:56:59;0.00;0.00;0.62;0.00;0.00;0.62;6.40;3.60;;;23.80;35.70;;;;;;2233967;62;20360;-66
2022/08/28 01:59:46;0.00;0.00;0.62;0.00;0.00;0.62;7.30;3.23;;;23.80;35.70;;;;;;2233601;62;20416;-65
2022/08/28 02:02:31;0.00;0.00;0.62;0.00;0.00;0.62;8.90;4.03;;;23.80;35.70;;;;;;2234104;62;20416;-63
2022/08/28 02:05:17;0.00;0.00;0.62;0.00;0.00;0.62;6.57;3.47;;;23.80;35.70;;;;;;2233147;62;20395;-62
2022/08/28 02:08:04;0.00;0.00;0.62;0.00;0.00;0.62;11.50;3.47;;;23.80;35.80;;;;;;2234328;62;20368;-62
2022/08/28 02:10:49;0.00;0.00;0.62;0.00;0.00;0.62;7.70;3.83;;;23.80;35.80;;;;;;2234221;62;20364;-67
2022/08/28 02:13:36;0.00;0.00;0.62;0.00;0.00;0.62;11.90;3.97;;;23.80;35.80;;;;;;2232815;62;20407;-66
2022/08/28 02:16:22;0.00;0.00;0.62;0.00;0.00;0.62;9.07;4.03;;;23.90;35.90;;;;;;2234159;62;20379;-67
2022/08/28 02:19:07;0.00;0.00;0.62;0.00;0.00;0.62;11.90;3.80;;;23.80;35.70;;;;;;2234060;62;20384;-63
2022/08/28 02:21:52;0.00;0.00;0.62;0.00;0.00;0.62;8.60;3.87;;;23.80;35.70;;;;;;2233319;62;20389;-63
2022/08/28 02:24:36;0.00;0.00;0.62;0.00;0.00;0.62;5.57;3.63;;;23.80;35.80;;;;;;2233999;62;20687;-65
2022/08/28 02:27:22;0.00;0.00;0.62;0.00;0.00;0.62;9.50;4.60;;;23.80;35.80;;;;;;2233397;62;20388;-63
2022/08/28 02:30:12;0.00;0.00;0.62;0.00;0.00;0.62;6.53;4.20;;;23.80;35.70;;;;;;2234230;62;20356;-63
2022/08/28 02:32:58;0.00;0.00;0.62;0.00;0.00;0.62;5.10;3.03;;;23.80;35.70;;;;;;2233635;62;20631;-63
2022/08/28 02:35:43;0.00;0.00;0.62;0.00;0.00;0.62;10.47;4.70;;;23.80;35.70;;;;;;2233084;62;20609;-64
2022/08/28 02:38:28;0.00;0.00;0.62;0.00;0.00;0.62;4.80;3.60;;;23.80;35.80;;;;;;2234058;62;20376;-64
2022/08/28 02:41:13;0.00;0.00;0.62;0.00;0.00;0.62;9.30;4.23;;;23.80;35.80;;;;;;2234072;62;20408;-64
2022/08/28 02:43:58;0.00;0.00;0.62;0.00;0.00;0.62;8.60;3.97;;;23.80;35.90;;;;;;2238044;62;20411;-65
2022/08/28 02:46:43;0.00;0.00;0.62;0.00;0.00;0.62;6.80;3.80;;;23.80;35.90;;;;;;2234034;62;20359;-63
2022/08/28 02:49:30;0.00;0.00;0.62;0.00;0.00;0.62;10.33;4.00;;;23.80;35.80;;;;;;2233487;62;20381;-66
2022/08/28 02:52:15;0.00;0.00;0.62;0.00;0.00;0.62;6.90;4.23;;;23.80;35.80;;;;;;2233923;62;20381;-66
2022/08/28 02:55:00;0.00;0.00;0.62;0.00;0.00;0.62;6.10;3.80;;;23.80;35.80;;;;;;2233902;62;20452;-64
2022/08/28 02:57:45;0.00;0.00;0.62;0.00;0.00;0.62;4.87;3.37;;;23.80;35.90;;;;;;2232917;62;20704;-63
2022/08/28 03:00:30;0.00;0.00;0.62;0.00;0.00;0.62;7.10;3.40;;;23.80;35.90;;;;;;2234034;62;20364;-63
2022/08/28 03:03:15;0.00;0.00;0.62;0.00;0.00;0.62;7.67;3.73;;;23.80;35.90;;;;;;2233896;62;20748;-64
2022/08/28 03:06:03;0.00;0.00;0.62;0.00;0.00;0.62;6.80;2.93;;;23.80;35.90;;;;;;2232981;62;20412;-62
2022/08/28 03:08:48;0.00;0.00;0.62;0.00;0.00;0.62;6.33;3.83;;;23.80;35.90;;;;;;2233966;62;20372;-64
2022/08/28 03:11:33;0.00;0.00;0.62;0.00;0.00;0.62;6.67;2.93;;;23.80;35.90;;;;;;2233277;62;20404;-67
2022/08/28 03:14:17;0.00;0.00;0.62;0.00;0.00;0.62;6.67;3.43;;;23.80;35.90;;;;;;2233618;62;20391;-65
2022/08/28 03:17:06;0.00;0.00;0.62;0.00;0.00;0.62;5.27;3.50;;;23.80;35.90;;;;;;2233784;62;20381;-64
2022/08/28 03:19:51;0.00;0.00;0.62;0.00;0.00;0.62;4.87;3.60;;;23.90;35.90;;;;;;2232992;62;20372;-64
2022/08/28 03:25:41;0.00;0.00;0.62;0.00;0.00;0.62;9.90;3.57;;;23.90;35.90;;;;;;2233974;62;20392;-64
2022/08/28 03:28:29;0.00;0.00;0.62;0.00;0.00;0.62;7.00;3.63;;;23.90;35.80;;;;;;2233082;62;20838;-65
2022/08/28 03:31:18;0.00;0.00;0.62;0.00;0.00;0.62;10.03;4.30;;;23.90;35.70;;;;;;2233853;62;20385;-63
2022/08/28 03:34:03;0.00;0.00;0.62;0.00;0.00;0.62;6.33;3.50;;;23.90;35.80;;;;;;2232998;62;20428;-63
2022/08/28 03:36:48;0.00;0.00;0.62;0.00;0.00;0.62;7.47;3.57;;;23.90;35.80;;;;;;2233905;62;20364;-66
2022/08/28 03:39:34;0.00;0.00;0.62;0.00;0.00;0.62;5.67;3.20;;;23.90;35.80;;;;;;2234024;62;20572;-65
2022/08/28 03:42:19;0.00;0.00;0.62;0.00;0.00;0.62;10.13;3.90;;;23.90;35.80;;;;;;2232789;62;20613;-65
2022/08/28 03:45:07;0.00;0.00;0.62;0.00;0.00;0.62;7.73;3.33;;;23.90;35.80;;;;;;2233751;62;20427;-64
2022/08/28 03:47:52;0.00;0.00;0.62;0.00;0.00;0.62;9.40;3.77;;;23.90;35.80;;;;;;2233930;62;20729;-66
2022/08/28 03:50:39;0.00;0.00;0.62;0.00;0.00;0.62;5.87;3.30;;;23.90;35.90;;;;;;2233006;62;20356;-63
2022/08/28 03:53:26;0.00;0.00;0.62;0.00;0.00;0.62;7.07;3.83;;;23.80;35.80;;;;;;2233790;62;20433;-63
2022/08/28 03:56:16;0.00;0.00;0.62;0.00;0.00;0.62;10.60;4.07;;;23.80;35.80;;;;;;2233040;62;20446;-65
2022/08/28 03:59:04;0.00;0.00;0.62;0.00;0.00;0.62;7.23;3.17;;;23.80;35.80;;;;;;2233972;62;20387;-62
2022/08/28 04:01:48;0.00;0.00;0.62;0.00;0.00;0.62;5.50;3.50;;;23.80;35.70;;;;;;2233907;62;20369;-64
2022/08/28 04:04:33;0.00;0.00;0.62;0.00;0.00;0.62;4.90;3.80;;;23.70;35.60;;;;;;2233245;62;20391;-64
2022/08/28 04:07:19;0.00;0.00;0.62;0.00;0.00;0.62;5.73;3.53;;;23.70;35.70;;;;;;2234469;62;20371;-64
2022/08/28 04:10:05;0.00;0.00;0.62;0.00;0.00;0.62;5.80;3.23;;;23.70;35.60;;;;;;2234525;62;20409;-66
2022/08/28 04:12:52;0.00;0.00;0.62;0.00;0.00;0.62;10.70;4.03;;;23.70;35.70;;;;;;2233571;62;20364;-66
2022/08/28 04:15:37;0.00;0.00;0.62;0.00;0.00;0.62;7.30;3.70;;;23.60;35.70;;;;;;2234419;62;20364;-63
2022/08/28 04:18:22;0.00;0.00;0.62;0.00;0.00;0.62;6.77;3.80;;;23.60;35.80;;;;;;2233890;62;20372;-64
2022/08/28 04:21:11;0.00;0.00;0.62;0.00;0.00;0.62;8.80;3.60;;;23.60;35.80;;;;;;2234416;62;20418;-66
2022/08/28 04:23:56;0.00;0.00;0.62;0.00;0.00;0.62;9.33;3.73;;;23.60;35.90;;;;;;2234305;62;20433;-67
2022/08/28 04:26:40;0.00;0.00;0.62;0.00;0.00;0.62;5.83;3.73;;;23.60;35.90;;;;;;2233428;62;20367;-62
2022/08/28 04:29:27;0.00;0.00;0.62;0.00;0.00;0.62;6.50;3.83;;;23.60;35.90;;;;;;2234394;62;20356;-66
2022/08/28 04:32:12;0.00;0.00;0.62;0.00;0.00;0.62;6.87;3.90;;;23.60;35.90;;;;;;2234469;62;20372;-66
2022/08/28 04:34:57;0.00;0.00;0.62;0.00;0.00;0.62;6.40;3.80;;;23.60;35.90;;;;;;2233373;62;20388;-64
2022/08/28 04:37:45;0.00;0.00;0.62;0.00;0.00;0.62;6.00;2.93;;;23.60;35.90;;;;;;2234246;62;20456;-65
2022/08/28 04:40:30;0.00;0.00;0.62;0.00;0.00;0.62;8.03;3.70;;;23.60;36.00;;;;;;2233769;62;20360;-65
2022/08/28 04:43:14;0.00;0.00;0.62;0.00;0.00;0.62;6.90;3.47;;;23.70;36.00;;;;;;2234246;62;20635;-66
2022/08/28 04:46:05;0.00;0.00;0.62;0.00;0.00;0.62;16.77;4.60;;;23.70;36.00;;;;;;2234304;62;20387;-64
2022/08/28 04:48:50;0.00;0.00;0.62;0.00;0.00;0.62;6.83;3.50;;;23.70;36.00;;;;;;2233334;62;20739;-65
2022/08/28 04:51:36;0.00;0.00;0.62;0.00;0.00;0.62;5.93;3.13;;;23.80;36.00;;;;;;2233945;62;20384;-67
2022/08/28 04:54:20;0.00;0.00;0.62;0.00;0.00;0.62;10.00;3.33;;;23.80;36.00;;;;;;2234236;62;20433;-63
2022/08/28 04:57:05;0.00;0.00;0.62;0.00;0.00;0.62;5.83;3.40;;;23.70;35.90;;;;;;2233245;62;20753;-64
2022/08/28 04:59:50;0.00;0.00;0.62;0.00;0.00;0.62;6.43;3.40;;;23.80;35.90;;;;;;2234282;62;20695;-63
2022/08/28 05:02:37;0.00;0.00;0.62;0.00;0.00;0.62;5.00;3.10;;;23.80;35.80;;;;;;2238683;62;20592;-65
2022/08/28 05:05:22;0.00;0.00;0.62;0.00;0.00;0.62;4.93;3.03;;;23.70;35.60;;;;;;2233854;62;20400;-65
2022/08/28 05:08:07;0.00;0.00;0.62;0.00;0.00;0.62;9.03;3.93;;;23.70;35.60;;;;;;2234408;62;20364;-63
2022/08/28 05:10:52;0.00;0.00;0.62;0.00;0.00;0.62;6.23;3.33;;;23.70;35.60;;;;;;2233181;62;20434;-66
2022/08/28 05:13:36;0.00;0.00;0.62;0.00;0.00;0.62;4.63;3.43;;;23.70;35.60;;;;;;2234134;62;20425;-67
2022/08/28 05:16:22;0.00;0.00;0.62;0.00;0.00;0.62;6.53;3.10;;;23.70;35.60;;;;;;2234145;62;20433;-62
2022/08/28 05:19:08;0.00;0.00;0.62;0.00;0.00;0.62;7.83;3.70;;;23.70;35.70;;;;;;2233255;62;20436;-65
2022/08/28 05:21:53;0.00;0.00;0.62;0.00;0.00;0.62;6.43;3.20;;;23.60;35.60;;;;;;2234332;62;20840;-66
2022/08/28 05:24:39;0.00;0.00;0.62;0.00;0.00;0.62;5.90;3.50;;;23.70;35.70;;;;;;2232935;62;20392;-63
2022/08/28 05:27:24;0.00;0.00;0.62;0.00;0.00;0.62;5.87;3.87;;;23.60;35.70;;;;;;2233942;62;20581;-63
2022/08/28 05:30:11;0.00;0.00;0.62;0.00;0.00;0.62;7.97;3.83;;;23.60;35.70;;;;;;2234430;62;20581;-63
2022/08/28 05:32:55;0.00;0.00;0.62;0.00;0.00;0.62;7.20;3.53;;;23.60;35.70;;;;;;2233092;62;20387;-62
2022/08/28 05:35:44;0.00;0.00;0.62;0.00;0.00;0.62;9.30;4.03;;;23.60;35.70;;;;;;2234186;62;20408;-66
2022/08/28 05:38:29;0.00;0.00;0.62;0.00;0.00;0.62;11.33;5.20;;;23.60;35.70;;;;;;2234148;62;20372;-62
2022/08/28 05:41:19;0.00;0.00;0.62;0.00;0.00;0.62;11.03;4.20;;;23.60;35.70;;;;;;2233188;62;20368;-64
2022/08/28 05:44:07;0.00;0.00;0.62;0.00;0.00;0.62;10.33;4.53;;;23.50;35.80;;;;;;2234085;62;20432;-63
2022/08/28 05:46:52;0.00;0.00;0.62;0.00;0.00;0.62;6.60;4.00;;;23.50;35.80;;;;;;2233460;62;20440;-62
2022/08/28 05:49:37;0.00;0.00;0.62;0.00;0.00;0.62;5.20;3.40;;;23.50;35.80;;;;;;2233664;62;20364;-63
2022/08/28 05:52:24;0.00;0.00;0.62;0.00;0.00;0.62;6.30;4.17;;;23.50;35.90;;;;;;2234184;62;20360;-63
2022/08/28 05:55:12;0.00;0.00;0.62;0.00;0.00;0.62;6.83;3.87;;;23.50;36.00;;;;;;2233026;62;20723;-64
2022/08/28 05:58:27;0.00;0.00;0.62;0.00;0.00;0.62;6.70;3.67;;;23.50;36.00;;;;;;2234071;62;20409;-65
2022/08/28 06:01:07;0.00;0.00;0.62;0.00;0.00;0.62;6.53;3.80;;;23.50;36.00;;;;;;2234036;62;20408;-63
2022/08/28 06:03:56;0.00;0.00;0.62;0.00;0.00;0.62;8.23;3.67;;;23.50;36.10;;;;;;2233077;62;20388;-62
2022/08/28 06:06:41;0.00;0.00;0.62;0.00;0.00;0.62;6.03;2.70;;;23.50;36.10;;;;;;2234131;62;20427;-64
2022/08/28 06:09:28;0.00;0.00;0.62;0.00;0.00;0.62;6.13;3.17;;;23.50;36.20;;;;;;2233350;62;20507;-65
2022/08/28 06:12:13;0.00;0.00;0.62;0.00;0.00;0.62;6.50;3.17;;;23.50;36.20;;;;;;2234241;62;20365;-65
2022/08/28 06:14:58;0.00;0.00;0.62;0.00;0.00;0.62;5.13;3.37;;;23.50;36.30;;;;;;2234030;62;20614;-63
2022/08/28 06:17:42;0.00;0.00;0.62;0.00;0.00;0.62;8.60;3.17;;;23.50;36.30;;;;;;2233051;62;20368;-66
2022/08/28 06:20:27;0.00;0.00;0.62;0.00;0.00;0.62;4.37;2.97;;;23.50;36.40;;;;;;2234150;62;20419;-65
2022/08/28 06:23:17;0.00;0.00;0.62;0.00;0.00;0.62;5.67;2.97;;;23.50;36.30;;;;;;2233930;62;20481;-64
2022/08/28 06:26:04;0.00;0.00;0.62;0.00;0.00;0.62;6.40;2.60;;;23.60;36.30;;;;;;2233077;62;20428;-63
2022/08/28 06:28:50;0.00;0.00;0.62;0.00;0.00;0.62;6.97;3.60;;;23.60;36.20;;;;;;2234051;62;20584;-64
2022/08/28 06:31:35;0.00;0.00;0.62;0.00;0.00;0.62;8.83;3.40;;;23.60;36.10;;;;;;2233331;62;20587;-64
2022/08/28 06:34:20;0.00;0.00;0.62;0.00;0.00;0.62;6.47;3.17;;;23.60;36.10;;;;;;2233906;62;20387;-65
2022/08/28 06:37:04;0.00;0.00;0.62;0.00;0.00;0.62;6.00;3.10;;;23.60;36.10;;;;;;2233896;62;20360;-64
2022/08/28 06:39:49;0.00;0.00;0.62;0.00;0.00;0.62;6.20;2.80;;;23.60;36.10;;;;;;2232494;62;20372;-68
2022/08/28 06:42:36;0.00;0.00;0.62;0.00;0.00;0.62;5.70;3.40;;;23.60;36.20;;;;;;2238710;62;20408;-66
2022/08/28 06:45:21;0.00;0.00;0.62;0.00;0.00;0.62;5.60;2.50;;;23.60;36.20;;;;;;2233894;62;20431;-67
2022/08/28 06:48:06;0.00;0.00;0.62;0.00;0.00;0.62;7.33;3.43;;;23.60;36.20;;;;;;2233201;62;20599;-66
2022/08/28 06:50:52;0.00;0.00;0.62;0.00;0.00;0.62;5.40;3.20;;;23.60;36.30;;;;;;2233860;62;20368;-63
2022/08/28 06:53:40;0.00;0.00;0.62;0.00;0.00;0.62;7.97;3.30;;;23.60;36.20;;;;;;2236943;62;20765;-64
2022/08/28 06:56:25;0.00;0.00;0.62;0.00;0.00;0.62;5.80;3.10;;;23.70;37.00;;;;;;2241761;62;20730;-66
2022/08/28 06:59:11;0.00;0.00;0.62;0.00;0.00;0.62;5.70;2.93;;;23.70;36.30;;;;;;2241829;62;20580;-68
2022/08/28 07:01:56;0.00;0.00;0.62;0.00;0.00;0.62;8.40;3.50;;;23.80;36.30;;;;;;2240834;62;20370;-64
2022/08/28 07:04:40;0.00;0.00;0.62;0.00;0.00;0.62;8.33;3.30;;;23.70;36.20;;;;;;2241636;62;20386;-66
2022/08/28 07:07:25;0.00;0.00;0.62;0.00;0.00;0.62;5.97;3.43;;;23.80;36.20;;;;;;2241926;62;20410;-64
2022/08/28 07:10:10;0.00;0.00;0.62;0.00;0.00;0.62;12.13;3.50;;;23.80;36.10;;;;;;2240659;62;20350;-65
2022/08/28 07:12:56;0.00;0.00;0.62;0.00;0.00;0.62;8.52;3.22;;;23.80;36.10;;;;;;2241566;62;20689;-65
2022/08/28 07:15:42;0.00;0.00;0.62;0.00;0.00;0.62;5.60;2.33;;;23.80;36.10;;;;;;2241183;62;20264;-67
2022/08/28 07:18:26;0.00;0.00;0.62;0.00;0.00;0.62;7.07;3.47;;;23.80;36.00;;;;;;2241521;62;20740;-66
2022/08/28 07:21:15;0.00;0.00;0.62;0.00;0.00;0.62;6.27;3.53;;;23.80;36.00;;;;;;2241893;62;20406;-65
2022/08/28 07:24:02;0.00;0.00;0.62;0.00;0.00;0.62;4.97;2.60;;;23.90;36.10;;;;;;2240864;62;20745;-66
2022/08/28 07:26:47;0.00;0.00;0.62;0.00;0.00;0.62;8.20;3.67;;;23.90;36.10;;;;;;2241811;62;20397;-65
2022/08/28 07:29:32;0.00;0.00;0.62;0.00;0.00;0.62;5.53;2.87;;;23.90;36.40;;;;;;2241959;62;20475;-65
2022/08/28 07:32:20;0.00;0.00;0.62;0.00;0.00;0.62;3.43;2.33;;;23.90;36.10;;;;;;2240724;62;20354;-66
2022/08/28 07:35:06;0.00;0.00;0.62;0.00;0.00;0.62;4.10;2.40;;;23.90;36.10;;;;;;2241766;62;20427;-67
2022/08/28 07:37:51;0.00;0.00;0.62;0.00;0.00;0.62;6.57;3.77;;;23.90;36.10;;;;;;2237570;62;20585;-63
2022/08/28 07:40:36;0.00;0.00;0.62;0.00;0.00;0.62;5.73;3.97;;;24.00;36.30;;;;;;2508615;46;20356;-64
2022/08/28 07:46:25;0.00;0.00;0.62;0.00;0.00;0.62;6.33;4.20;;;24.00;36.20;;;;;;2237445;62;20398;-67
2022/08/28 07:49:15;0.00;0.00;0.62;0.00;0.00;0.62;7.23;4.20;;;24.00;36.20;;;;;;2238511;62;20436;-64
2022/08/28 07:52:01;0.00;0.00;0.62;0.00;0.00;0.62;6.83;3.13;;;24.10;36.20;;;;;;2238599;62;20497;-67
2022/08/28 07:54:47;0.00;0.00;0.62;0.00;0.00;0.62;5.60;3.67;;;24.10;36.10;;;;;;2237331;62;20422;-67
2022/08/28 07:57:34;0.00;0.00;0.62;0.00;0.00;0.62;5.30;3.60;;;24.10;36.80;;;;;;2485450;54;20712;-65
2022/08/28 08:00:19;0.00;0.00;0.62;0.00;0.00;0.62;2.93;2.00;;;24.20;36.00;;;;;;2233837;62;20481;-64
2022/08/28 08:03:04;0.00;0.00;0.62;0.00;0.00;0.62;6.50;2.40;;;24.20;35.90;;;;;;2234394;62;20372;-67
2022/08/28 08:05:55;0.00;0.00;0.62;0.00;0.00;0.62;4.77;3.00;;;24.20;35.70;;;;;;2234549;62;20502;-62
2022/08/28 08:08:40;0.00;0.00;0.62;0.00;0.00;0.62;4.77;2.37;;;24.30;35.60;;;;;;2233294;62;20377;-62
2022/08/28 08:11:25;0.00;0.00;0.62;0.00;0.00;0.62;6.93;2.67;;;24.30;35.60;;;;;;2234562;62;20368;-62
2022/08/28 08:14:12;0.00;0.00;0.62;0.00;0.00;0.62;4.67;1.80;;;24.30;35.50;;;;;;2237812;62;20431;-67
2022/08/28 08:17:00;0.00;0.00;0.62;0.00;0.00;0.62;4.43;2.80;;;24.40;35.50;;;;;;2237346;62;20714;-64
2022/08/28 08:19:45;0.00;0.00;0.62;0.00;0.00;0.62;10.97;2.50;;;24.40;35.40;;;;;;2238466;62;20392;-64
2022/08/28 08:22:32;0.00;0.00;0.62;0.00;0.00;0.62;7.00;2.40;;;24.50;36.10;;;;;;2237356;62;20715;-67
2022/08/28 08:25:17;0.00;0.00;0.62;0.00;0.00;0.62;5.30;2.27;;;24.50;35.30;;;;;;2238530;62;20391;-66
2022/08/28 08:28:03;0.00;0.00;0.62;0.00;0.00;0.62;5.07;2.10;;;24.60;35.30;;;;;;2238474;62;20363;-65
2022/08/28 08:30:48;0.00;0.00;0.62;0.00;0.00;0.62;6.43;2.27;;;24.60;35.30;;;;;;2237320;62;20371;-64
2022/08/28 08:33:35;0.00;0.00;0.62;0.00;0.00;0.62;6.43;2.83;;;24.60;35.20;;;;;;2237970;62;20382;-66
2022/08/28 08:36:23;0.00;0.00;0.62;0.00;0.00;0.62;6.27;2.83;;;24.70;35.20;;;;;;2238328;62;20367;-65
2022/08/28 08:39:09;0.00;0.00;0.62;0.00;0.00;0.62;3.47;2.00;;;24.70;34.90;;;;;;2237535;62;20376;-65
2022/08/28 08:41:58;0.00;0.00;0.62;0.00;0.00;0.62;5.30;2.30;;;24.80;34.80;;;;;;2238433;62;20371;-66
2022/08/28 08:44:46;0.00;0.00;0.62;0.00;0.00;0.62;6.30;2.50;;;24.90;34.90;;;;;;2237316;62;20483;-64
2022/08/28 08:47:39;0.00;0.00;0.62;0.00;0.00;0.62;4.07;2.20;;;24.90;34.80;;;;;;2238295;62;20410;-63
2022/08/28 08:50:28;0.00;0.00;0.62;0.00;0.00;0.62;4.53;2.43;;;24.90;34.70;;;;;;2238025;62;20360;-64
2022/08/28 08:53:30;0.00;0.00;0.62;0.00;0.00;0.62;4.33;2.40;;;25.00;34.50;;;;;;2237156;62;20403;-64
2022/08/28 08:56:20;0.00;0.00;0.62;0.00;0.00;0.62;2.87;2.10;;;25.00;34.50;;;;;;2238334;62;20373;-64
2022/08/28 08:59:10;0.00;0.00;0.62;0.00;0.00;0.62;5.73;3.00;;;25.00;34.40;;;;;;2238177;62;20371;-65
2022/08/28 09:02:05;0.00;0.00;0.62;0.00;0.00;0.62;6.07;3.00;;;25.00;34.40;;;;;;2238194;62;20433;-67
2022/08/28 09:04:58;0.00;0.00;0.62;0.00;0.00;0.62;3.80;2.73;;;25.00;34.20;;;;;;2238025;62;20424;-66
2022/08/28 09:07:52;0.00;0.00;0.62;0.00;0.00;0.62;4.90;2.63;;;25.10;34.20;;;;;;2237514;62;20371;-66
2022/08/28 09:10:43;0.00;0.00;0.62;0.00;0.00;0.62;4.63;2.50;;;25.10;34.00;;;;;;2238167;62;20395;-66
2022/08/28 09:13:44;0.00;0.00;0.62;0.00;0.00;0.62;6.00;2.40;;;25.20;33.90;;;;;;2238108;62;20418;-67
2022/08/28 09:16:37;0.00;0.00;0.62;0.00;0.00;0.62;5.13;2.33;;;25.20;33.90;;;;;;2238007;62;20383;-64
2022/08/28 09:19:22;0.00;0.00;0.62;0.00;0.00;0.62;6.90;2.60;;;25.20;33.80;;;;;;2238181;62;20368;-67
2022/08/28 09:22:07;0.00;0.00;0.62;0.00;0.00;0.62;3.77;2.27;;;25.20;33.80;;;;;;2237179;62;20363;-65
2022/08/28 09:24:52;0.00;0.00;0.62;0.00;0.00;0.62;5.67;2.63;;;25.30;33.80;;;;;;2238211;62;20396;-68
2022/08/28 09:27:52;0.00;0.00;0.62;0.00;0.00;0.62;5.00;2.53;;;25.30;33.50;;;;;;2238328;62;20787;-64
2022/08/28 09:30:40;0.00;0.00;0.62;0.00;0.00;0.62;5.90;2.27;;;25.40;33.40;;;;;;2237123;62;20750;-68
2022/08/28 09:33:38;0.00;0.00;0.62;0.00;0.00;0.62;6.80;3.30;;;25.40;32.90;;;;;;2237926;62;20395;-67
2022/08/28 09:36:30;0.00;0.00;0.62;0.00;0.00;0.62;4.30;1.90;;;25.40;32.90;;;;;;2237671;62;20380;-65
2022/08/28 09:39:18;0.00;0.00;0.62;0.00;0.00;0.62;4.40;2.90;;;25.40;32.80;;;;;;2238219;62;20435;-66
2022/08/28 09:45:25;0.00;0.00;0.62;0.00;0.00;0.62;3.60;2.17;;;25.50;32.90;;;;;;2237010;62;20790;-65
2022/08/28 09:48:21;0.00;0.00;0.62;0.00;0.00;0.62;8.40;2.73;;;25.50;33.10;;;;;;2234578;62;20508;-62
2022/08/28 09:51:09;0.00;0.00;0.62;0.00;0.00;0.62;3.40;2.17;;;25.60;33.10;;;;;;2233486;62;20732;-65
2022/08/28 09:54:00;0.00;0.00;0.62;0.00;0.00;0.62;4.27;2.40;;;25.60;32.70;;;;;;2233897;62;20403;-64
2022/08/28 09:56:46;0.00;0.00;0.62;0.00;0.00;0.62;4.53;2.57;;;25.70;32.80;;;;;;2234163;62;20705;-65
2022/08/28 09:59:31;0.00;0.00;0.62;0.00;0.00;0.62;5.00;2.17;;;25.70;32.70;;;;;;2233343;62;20378;-65
2022/08/28 10:02:26;0.00;0.00;0.62;0.00;0.00;0.62;8.30;2.00;;;25.70;32.80;;;;;;2234078;62;20369;-65
2022/08/28 10:05:19;0.00;0.00;0.62;0.00;0.00;0.62;3.73;2.27;;;25.80;32.70;;;;;;2234163;62;20441;-63
2022/08/28 10:08:18;0.00;0.00;0.62;0.00;0.00;0.62;4.03;2.20;;;25.80;32.70;;;;;;2233295;62;20365;-63
2022/08/28 10:11:18;0.00;0.00;0.62;0.00;0.00;0.62;3.00;1.83;;;25.80;32.60;;;;;;2233786;62;20373;-64
2022/08/28 10:14:20;0.00;0.00;0.62;0.00;0.00;0.62;5.20;2.20;;;25.90;32.60;;;;;;2232092;62;20407;-67
2022/08/28 10:17:20;0.00;0.00;0.62;0.00;0.00;0.62;4.50;2.40;;;25.90;32.40;;;;;;2239440;62;20418;-65
2022/08/28 10:20:16;0.00;0.00;0.62;0.00;0.00;0.62;4.23;2.50;;;26.00;32.20;;;;;;2239227;62;20379;-62
2022/08/28 10:23:09;0.00;0.00;0.62;0.00;0.00;0.62;5.73;2.43;;;26.00;32.20;;;;;;2237369;62;20590;-63
2022/08/28 10:26:04;0.00;0.00;0.62;0.00;0.00;0.62;4.60;2.70;;;26.00;32.00;;;;;;2238070;62;20391;-63
2022/08/28 10:29:01;0.00;0.00;0.62;0.00;0.00;0.62;5.50;2.90;;;26.10;31.80;;;;;;2236935;62;20396;-64
2022/08/28 10:31:54;0.00;0.00;0.62;0.00;0.00;0.62;4.83;2.70;;;26.10;31.80;;;;;;2237963;62;20545;-64
2022/08/28 10:34:53;0.00;0.00;0.62;0.00;0.00;0.62;3.60;2.50;;;26.10;31.60;;;;;;2237818;62;20614;-62
2022/08/28 10:37:54;0.00;0.00;0.62;0.00;0.00;0.62;5.93;2.73;;;26.10;31.50;;;;;;2237266;62;20372;-64
2022/08/28 10:40:54;0.00;0.00;0.62;0.00;0.00;0.62;5.73;2.63;;;26.20;31.70;;;;;;2238084;62;20408;-64
2022/08/28 10:43:44;0.00;0.00;0.62;0.00;0.00;0.62;6.87;2.63;;;26.20;31.70;;;;;;2234469;62;20504;-64
2022/08/28 10:46:35;0.00;0.00;0.62;0.00;0.00;0.62;5.90;2.67;;;26.20;31.30;;;;;;2234247;62;20468;-64
2022/08/28 10:49:27;0.00;0.00;0.62;0.00;0.00;0.62;6.73;2.40;;;26.20;31.40;;;;;;2237976;62;20374;-63
2022/08/28 10:52:20;0.00;0.00;0.62;0.00;0.00;0.62;4.53;2.33;;;26.30;31.50;;;;;;2237172;62;20715;-66
2022/08/28 10:55:16;0.00;0.00;0.62;0.00;0.00;0.62;4.73;2.40;;;26.30;31.40;;;;;;2234013;62;20388;-63
2022/08/28 10:58:06;0.00;0.00;0.62;0.00;0.00;0.62;4.67;2.17;;;26.30;31.20;;;;;;2233464;62;20717;-63
2022/08/28 11:00:53;0.00;0.00;0.62;0.00;0.00;0.62;3.87;2.07;;;26.30;31.20;;;;;;2233667;62;20364;-63
2022/08/28 11:03:42;0.00;0.00;0.62;0.00;0.00;0.62;3.60;2.33;;;26.30;30.90;;;;;;2236286;62;20529;-63
2022/08/28 11:06:34;0.00;0.00;0.62;0.00;0.00;0.62;5.87;2.20;;;26.40;31.00;;;;;;2237067;62;20771;-64
2022/08/28 11:09:31;0.00;0.00;0.62;0.00;0.00;0.62;7.80;2.77;;;26.40;31.00;;;;;;2237908;62;20714;-63
2022/08/28 11:12:40;0.00;0.00;0.62;0.00;0.00;0.62;7.67;3.13;;;26.40;31.00;;;;;;2238043;62;20360;-63
2022/08/28 11:15:52;0.00;0.00;0.62;0.00;0.00;0.62;3.83;2.30;;;26.40;31.00;;;;;;2234704;62;20680;-63